METAR Data
IDs: Format: Raw Decoded Include TAF

Data at: 0921 UTC 20 Sep 2018

PAKT 200853Z AUTO 13004KT 10SM OVC006 10/08 A3006 RMK AO2 SLP180 T01000083 401560067 53003 TSNO
PAKT 200753Z AUTO 14004KT 10SM OVC006 09/07 A3006 RMK AO2 SLP179 T00940072 TSNO
PAKT 200727Z AUTO 14004KT 10SM OVC005 09/06 A3006 RMK AO2 T00890061 TSNO
PAKT 200715Z AUTO 14003KT 10SM OVC004 09/07 A3005 RMK AO2 T00890072 TSNO
PAKT 200700Z AUTO 18005KT 10SM BKN005 09/08 A3005 RMK AO2 T00940083 TSNO
PAKT 200653Z AUTO 17005KT 10SM SCT005 09/07 A3005 RMK AO2 SLP178 T00890072 TSNO
PAKT 200642Z AUTO 17003KT 10SM FEW006 07/05 A3005 RMK AO2 T00670050 TSNO
PAKT 200553Z AUTO 15004KT 10SM CLR 09/07 A3005 RMK AO2 SLP177 T00890067 10156 20072 51004 TSNO
PAKT 200453Z 16004KT 10SM CLR 09/06 A3005 RMK AO2 SLP177 HARBOR WIND VRB04KT T00890061
PAKT 200353Z 17005KT 10SM CLR 09/06 A3005 RMK AO2 SLP175 HARBOR WIND VRB04KT T00890056
PAKT 200253Z 00000KT 10SM CLR 09/06 A3004 RMK AO2 SLP173 HARBOR WIND VRB05KT T00940061 53003
PAKT 200153Z 00000KT 10SM CLR 13/06 A3003 RMK AO2 SLP168 HARBOR WIND 10007KT T01280056
PAKT 200053Z 32006KT 10SM CLR 15/06 A3003 RMK AO2 SLP169 HARBOR WIND 30012KT T01500061
PAKT 192353Z 31007KT 10SM CLR 15/05 A3003 RMK AO2 SLP169 HARBOR WIND 30014KT T01500050 10156 20122 58010
PAKT 192253Z 30008KT 10SM CLR 15/04 A3004 RMK AO2 SLP173 HARBOR WIND 29015KT T01500044
PAKT 192153Z 30007KT 10SM CLR 14/07 A3005 RMK AO2 SLP176 HARBOR WIND 28013KT T01440067
PAKT 192053Z 31009KT 10SM CLR 14/07 A3006 RMK AO2 SLP179 HARBOR WIND 30012KT T01440072 56008
PAKT 191953Z 31008KT 10SM CLR 14/08 A3007 RMK AO2 SLP182 HARBOR WIND 29012KT T01390078
PAKT 191853Z 32008KT 10SM FEW120 13/08 A3007 RMK AO2 SLP184 HARBOR WIND 29012KT T01280078
PAKT 191753Z 34009KT 10SM FEW120 12/07 A3008 RMK AO2 SLP187 HARBOR WIND 32009KT T01220067 10122 20078 55001
PAKT 191653Z 32007KT 10SM CLR 11/07 A3008 RMK AO2 SLP187 HARBOR WIND VRB05KT T01060067
PAKT 191553Z 31004KT 10SM CLR 09/07 A3008 RMK AO2 SLP187 HARBOR WIND 31005KT T00940072
PAKT 191453Z 30003KT 10SM CLR 09/07 A3009 RMK AO2 SLP188 HARBOR WIND VRB05KT T00890067 55000
PAKT 191412Z 30004KT 10SM BKN120 09/07 A3008 RMK AO2 HARBOR WIND 31006KT T00890067
PAKT 191353Z AUTO 30004KT 10SM BKN120 09/07 A3008 RMK AO2 SLP187 T00890067 TSNO
PAKT 191253Z AUTO 27003KT 10SM BKN120 08/06 A3008 RMK AO2 SLP188 T00830061 TSNO
PAKT 191153Z AUTO 00000KT 10SM OVC120 08/06 A3009 RMK AO2 SLP188 T00780056 10100 20072 56001 TSNO
PAKT 191053Z AUTO 27003KT 10SM BKN120 08/06 A3009 RMK AO2 SLP189 T00780056 TSNO
PAKT 190953Z AUTO 00000KT 10SM CLR 08/06 A3009 RMK AO2 SLP188 T00780056 TSNO
PAKT 190853Z AUTO 23003KT 10SM CLR 07/06 A3009 RMK AO2 SLP190 T00720056 401610022 58003 TSNO
PAKT 190753Z AUTO 00000KT 10SM CLR 08/06 A3009 RMK AO2 SLP191 T00830056 TSNO
PAKT 190653Z AUTO 00000KT 10SM FEW100 09/07 A3010 RMK AO2 SLP192 T00940067 TSNO
PAKT 190553Z AUTO 16003KT 10SM CLR 09/07 A3010 RMK AO2 SLP192 T00940072 10144 20094 58001 TSNO
PAKT 190453Z 18004KT 10SM BKN120 11/07 A3010 RMK AO2 SLP194 HABOR WIND 08008KT T01060072
PAKT 190353Z COR 17003KT 10SM BKN120 10/07 A3010 RMK AO2 SLP194 HARBOR WIND 10008KT T01000072
PAKT 190253Z 17004KT 10SM BKN120 11/07 A3010 RMK AO2 SLP193 HARBOR WIND 11010KT T01110072 53001
PAKT 190153Z 15004KT 10SM BKN120 12/07 A3009 RMK AO2 SLP191 HARBOR WIND 10010KT T01220072
PAKT 190053Z 13006KT 10SM BKN120 13/07 A3009 RMK AO2 SLP191 HARBOR WIND 13010KT T01330067
PAKT 182353Z 13010KT 10SM CLR 14/04 A3010 RMK AO2 SLP192 HARBOR WIND 12011KT T01440044 10161 20122 58001
PAKT 182253Z 13008KT 10SM CLR 15/04 A3010 RMK AO2 SLP193 HARBOR WIND 13013KT T01500044
PAKT 182153Z 14007KT 10SM CLR 16/03 A3010 RMK AO2 SLP192 HARBOR WIND 14010KT T01610033